Aérodrome :
LOGIN :

S'inscrire | Disclaimer

   EN    FR    IT 

 










Légende :    VFR   VFR Marginal   IFR   IFR Intensif   IFR Très Intensif
Visi : 
Plafond : 
>= 8 km
>= 3000ft
5 à 8 km
1000 à 3000 ft
1500m à 5 km
500 à 1000 ft
800 à 1500m
200 à 500 ft
< 800m
< 200 ft
Symboles :   Orages  Brouillard  Fortes neiges  Fortes précipitations  Vent > 20 kt
SIGMETs :   Divers  Orages  Givrage  Turbulence  Onde Orograph.  Cendres Volcan.






- Altitude de l'aérodrome : 121 ft
- Code IATA : HUY


EGNJ - Humberside

DERNIER METAR :
  • 221520Z 26024G36KT 9999 SCT045 10/M00 Q1012

METARs EXPIRÉS :
  • 221450Z 26030G44KT 9999 SCT045 10/M02 Q1012
  • 221420Z 26023G34KT 9999 SCT037 11/M01 Q1011
  • 221350Z 25028KT 9999 SCT037 11/01 Q1011
  • 221320Z 25024G34KT 9999 SCT036 11/02 Q1010
  • 221250Z 25029G39KT 9999 SCT035 11/01 Q1010

TAF TAF EGNJ
Valide du 22 à 15h jusqu'au 23 à 00h UTC


221400Z 2215/2224 26022G35KT 9999 SCT020
BECMG 2215/2218 24015G25KT
ATIS : +44 1652 682 020



MET'MAP, la Météo Aéronautique d'un coup d'oeil ! - Copyright ORBIFLY Décembre 2007 - Disclaimer

ORBIFLY MET'MAP TEAM :

Programmation & Développement : Alexandra Zaïnal
Sur une idée originale de : Baudouin d'Aumeries
Assistance à la programmation : Marc-Olivier Méhu
Soutien technique & logistique : Manuel Goepfert

Contact : metmap@orbifly.com




SOURCES & CREDITS :

   NOAA